createdAt,value
2022-09-24T00:03:17.594Z,2.45
2022-09-24T00:08:20.258Z,2.70
2022-09-24T00:13:21.895Z,2.30
2022-09-24T00:18:23.538Z,2.40
2022-09-24T00:23:25.753Z,2.80
2022-09-24T00:28:27.649Z,2.40
2022-09-24T00:33:29.301Z,2.50
2022-09-24T00:38:34.153Z,3.03
2022-09-24T00:43:39.039Z,2.22
2022-09-24T00:48:42.823Z,2.60
2022-09-24T00:53:48.653Z,2.70
2022-09-24T00:58:54.962Z,2.28
2022-09-24T01:03:58.192Z,2.13
2022-09-24T01:09:00.728Z,2.60
2022-09-24T01:14:40.941Z,2.50
2022-09-24T01:19:45.570Z,2.47
2022-09-24T01:24:47.111Z,3.00
2022-09-24T01:30:05.997Z,3.08
2022-09-24T01:35:21.745Z,2.70
2022-09-24T01:40:27.070Z,2.47
2022-09-24T01:45:31.799Z,2.38
2022-09-24T01:50:40.528Z,2.40
2022-09-24T01:55:49.741Z,2.60
2022-09-24T02:00:57.559Z,2.72
2022-09-24T02:06:08.728Z,3.10
2022-09-24T02:11:17.413Z,2.90
2022-09-24T02:16:24.853Z,3.47
2022-09-24T02:21:28.808Z,3.33
2022-09-24T02:26:30.429Z,3.45
2022-09-24T02:31:37.883Z,2.63
2022-09-24T02:36:40.932Z,3.20
2022-09-24T02:41:42.709Z,3.22
2022-09-24T02:46:46.072Z,2.90
2022-09-24T02:51:47.757Z,3.05
2022-09-24T02:56:49.473Z,3.40
2022-09-24T03:01:51.185Z,3.35
2022-09-24T03:06:53.384Z,3.47
2022-09-24T03:11:55.553Z,2.80
2022-09-24T03:16:57.133Z,3.53
2022-09-24T03:21:58.814Z,4.22
2022-09-24T03:27:00.450Z,3.47
2022-09-24T03:32:02.516Z,3.97
2022-09-24T03:37:04.110Z,3.83
2022-09-24T03:42:05.978Z,3.50
2022-09-24T03:47:08.422Z,4.45
2022-09-24T03:52:10.249Z,3.25
2022-09-24T03:57:14.852Z,3.42
2022-09-24T04:02:16.890Z,3.63
2022-09-24T04:07:20.325Z,3.20
2022-09-24T04:12:23.235Z,4.43
2022-09-24T04:17:29.057Z,3.20
2022-09-24T04:22:30.900Z,3.92
2022-09-24T04:27:32.990Z,4.68
2022-09-24T04:32:34.903Z,4.43
2022-09-24T04:37:37.453Z,4.03
2022-09-24T04:42:40.508Z,4.70
2022-09-24T04:47:42.092Z,5.45
2022-09-24T04:52:43.870Z,5.25
2022-09-24T04:57:46.416Z,5.25
2022-09-24T05:02:55.522Z,4.32
2022-09-24T05:07:58.330Z,3.40
2022-09-24T05:13:00.753Z,3.92
2022-09-24T05:18:03.011Z,3.40
2022-09-24T05:23:05.385Z,4.20
2022-09-24T05:28:07.031Z,3.22
2022-09-24T05:33:10.398Z,3.80
2022-09-24T05:38:12.184Z,4.35
2022-09-24T05:43:14.988Z,4.10
2022-09-24T05:48:17.388Z,4.20
2022-09-24T05:53:18.938Z,5.85
2022-09-24T05:58:20.912Z,3.90
2022-09-24T06:03:22.949Z,4.70
2022-09-24T06:08:24.570Z,4.20
2022-09-24T06:13:26.866Z,5.45
2022-09-24T06:18:28.655Z,4.93
2022-09-24T06:23:31.292Z,4.78
2022-09-24T06:28:32.922Z,4.70
2022-09-24T06:33:35.091Z,5.35
2022-09-24T06:38:38.437Z,6.15
2022-09-24T06:43:40.291Z,7.03
2022-09-24T06:48:42.914Z,5.55
2022-09-24T06:53:44.734Z,6.07
2022-09-24T06:58:46.583Z,6.97
2022-09-24T07:03:48.200Z,6.28
2022-09-24T07:08:51.688Z,6.15
2022-09-24T07:13:53.284Z,6.43
2022-09-24T07:18:55.073Z,4.95
2022-09-24T07:23:58.718Z,6.00
2022-09-24T07:29:00.566Z,6.30
2022-09-24T07:34:02.296Z,6.18
2022-09-24T07:39:04.065Z,7.10
2022-09-24T07:44:06.066Z,7.90
2022-09-24T07:49:07.702Z,7.30
2022-09-24T07:54:15.009Z,6.90
2022-09-24T07:59:20.283Z,5.65
2022-09-24T08:04:22.240Z,6.78
2022-09-24T08:09:24.213Z,6.38
2022-09-24T08:14:26.200Z,6.88
2022-09-24T08:19:28.257Z,6.10
2022-09-24T08:24:31.172Z,6.80
2022-09-24T08:29:33.200Z,6.55
2022-09-24T08:34:38.431Z,5.82
2022-09-24T08:39:40.275Z,6.63
2022-09-24T08:45:07.145Z,5.15
2022-09-24T08:50:24.688Z,5.70
2022-09-24T08:55:41.577Z,4.40
2022-09-24T09:01:12.411Z,5.20
2022-09-24T09:06:34.010Z,6.13
2022-09-24T09:11:39.826Z,5.55
2022-09-24T09:16:47.832Z,6.45
2022-09-24T09:21:56.459Z,5.53
2022-09-24T09:26:58.333Z,5.85
2022-09-24T09:32:24.811Z,6.68
2022-09-24T09:37:35.618Z,4.88
2022-09-24T09:42:40.523Z,6.13
2022-09-24T09:47:49.511Z,5.72
2022-09-24T09:57:58.903Z,6.43
2022-09-24T10:03:01.408Z,5.88
2022-09-24T10:08:03.512Z,5.22
2022-09-24T10:13:12.663Z,5.65
2022-09-24T10:23:23.162Z,5.65
2022-09-24T10:28:44.302Z,6.13
2022-09-24T10:33:49.761Z,6.40
2022-09-24T10:39:02.323Z,5.70
2022-09-24T10:44:06.290Z,6.68
2022-09-24T10:49:22.582Z,5.15
2022-09-24T10:54:44.034Z,5.10
2022-09-24T11:00:22.287Z,4.70
2022-09-24T11:05:30.479Z,4.80
2022-09-24T11:11:03.244Z,5.33
2022-09-24T11:16:23.618Z,5.05
2022-09-24T11:21:31.055Z,5.10
2022-09-24T11:26:54.142Z,4.05
2022-09-24T11:32:11.447Z,4.35
2022-09-24T11:37:22.159Z,5.30
2022-09-24T11:42:44.493Z,4.05
2022-09-24T11:47:49.190Z,3.75
2022-09-24T11:53:06.292Z,8.13
2022-09-24T11:58:29.230Z,3.08
2022-09-24T12:03:39.841Z,3.35
2022-09-24T12:08:50.382Z,2.92
2022-09-24T12:14:19.485Z,3.63
2022-09-24T12:19:29.414Z,2.10
2022-09-24T12:24:46.339Z,2.95
2022-09-24T12:30:19.128Z,2.90
2022-09-24T12:35:34.036Z,3.10
2022-09-24T12:40:38.646Z,2.67
2022-09-24T12:45:40.650Z,4.07
2022-09-24T12:50:45.249Z,2.17
2022-09-24T12:55:47.379Z,2.33
2022-09-24T13:00:49.213Z,2.92
2022-09-24T13:05:50.884Z,2.53
2022-09-24T13:10:56.110Z,2.40
2022-09-24T13:16:06.552Z,1.90
2022-09-24T13:21:18.530Z,2.33
2022-09-24T13:26:35.548Z,2.10
2022-09-24T13:31:49.288Z,2.10
2022-09-24T13:37:20.105Z,1.70
2022-09-24T13:42:37.675Z,2.05
2022-09-24T13:47:54.122Z,1.60
2022-09-24T13:53:01.673Z,1.63
2022-09-24T13:58:03.370Z,2.22
2022-09-24T14:03:20.700Z,2.70
2022-09-24T14:08:24.360Z,2.50
2022-09-24T14:13:26.622Z,2.97
2022-09-24T14:18:29.539Z,5.63
2022-09-24T14:23:37.943Z,4.80
2022-09-24T14:28:39.865Z,2.40
2022-09-24T14:33:42.147Z,1.92
2022-09-24T14:38:58.098Z,1.70
2022-09-24T14:44:06.151Z,2.42
2022-09-24T14:49:24.625Z,1.63
2022-09-24T14:54:33.787Z,1.70
2022-09-24T14:59:38.116Z,2.53
2022-09-24T15:04:39.990Z,2.20
2022-09-24T15:09:42.464Z,1.60
2022-09-24T15:15:00.784Z,1.77
2022-09-24T15:20:04.200Z,1.60
2022-09-24T15:25:06.936Z,1.83
2022-09-24T15:30:19.683Z,4.18
2022-09-24T15:35:21.407Z,2.00
2022-09-24T15:40:25.531Z,1.58
2022-09-24T15:45:27.354Z,2.55
2022-09-24T15:50:29.030Z,1.80
2022-09-24T15:55:31.345Z,1.33
2022-09-24T16:00:33.269Z,1.40
2022-09-24T16:05:35.178Z,1.52
2022-09-24T16:10:36.970Z,1.90
2022-09-24T16:15:39.657Z,1.23
2022-09-24T16:20:42.113Z,1.77
2022-09-24T16:25:58.307Z,1.77
2022-09-24T16:31:06.529Z,2.00
2022-09-24T16:36:08.936Z,1.92
2022-09-24T16:41:10.995Z,2.67
2022-09-24T16:46:16.339Z,2.67
2022-09-24T16:51:21.447Z,3.42
2022-09-24T16:56:23.356Z,3.17
2022-09-24T17:01:24.969Z,3.58
2022-09-24T17:06:29.285Z,3.05
2022-09-24T17:11:31.039Z,3.38
2022-09-24T17:16:34.765Z,3.28
2022-09-24T17:21:38.462Z,3.78
2022-09-24T17:26:40.074Z,5.00
2022-09-24T17:31:41.959Z,4.10
2022-09-24T17:36:43.954Z,2.90
2022-09-24T17:41:45.834Z,4.03
2022-09-24T17:46:47.638Z,3.40
2022-09-24T17:51:49.455Z,4.70
2022-09-24T17:56:51.578Z,4.57
2022-09-24T18:01:53.798Z,4.57
2022-09-24T18:06:55.621Z,3.55
2022-09-24T18:11:58.343Z,2.78
2022-09-24T18:17:01.351Z,2.40
2022-09-24T18:22:04.612Z,3.33
2022-09-24T18:27:06.550Z,2.92
2022-09-24T18:32:08.133Z,4.43
2022-09-24T18:37:10.339Z,3.55
2022-09-24T18:42:12.085Z,3.35
2022-09-24T18:47:14.766Z,2.42
2022-09-24T18:52:16.429Z,3.85
2022-09-24T18:57:18.386Z,3.17
2022-09-24T19:02:23.755Z,3.30
2022-09-24T19:07:25.605Z,3.55
2022-09-24T19:12:29.789Z,3.00
2022-09-24T19:17:32.789Z,2.47
2022-09-24T19:22:34.664Z,4.05
2022-09-24T19:27:36.412Z,3.90
2022-09-24T19:32:39.981Z,3.70
2022-09-24T19:37:43.026Z,4.35
2022-09-24T19:42:45.459Z,3.33
2022-09-24T19:47:47.277Z,3.90
2022-09-24T19:52:49.205Z,3.25
2022-09-24T19:57:50.782Z,2.85
2022-09-24T20:02:52.519Z,3.17
2022-09-24T20:07:54.204Z,2.92
2022-09-24T20:12:57.314Z,2.85
2022-09-24T20:17:59.035Z,2.80
2022-09-24T20:23:01.381Z,3.28
2022-09-24T20:28:03.191Z,3.78
2022-09-24T20:33:07.547Z,3.08
2022-09-24T20:38:09.485Z,3.78
2022-09-24T20:43:11.048Z,3.95
2022-09-24T20:48:12.705Z,4.30
2022-09-24T20:53:14.295Z,4.05
2022-09-24T20:58:16.618Z,3.83
2022-09-24T21:03:42.215Z,3.72
2022-09-24T21:08:45.301Z,3.80
2022-09-24T21:13:52.210Z,3.95
2022-09-24T21:18:56.701Z,3.08
2022-09-24T21:24:00.751Z,4.22
2022-09-24T21:29:08.567Z,4.28
2022-09-24T21:34:11.988Z,4.00
2022-09-24T21:39:19.457Z,5.05
2022-09-24T21:44:21.893Z,4.95
2022-09-24T21:49:23.681Z,4.70
2022-09-24T21:54:25.727Z,5.38
2022-09-24T21:59:46.496Z,4.32
2022-09-24T22:04:48.431Z,4.72
2022-09-24T22:09:50.083Z,5.13
2022-09-24T22:14:52.323Z,4.78
2022-09-24T22:19:54.106Z,4.97
2022-09-24T22:24:55.668Z,4.90
2022-09-24T22:29:57.930Z,4.70
2022-09-24T22:35:17.970Z,4.88
2022-09-24T22:40:19.817Z,6.60
2022-09-24T22:45:21.369Z,6.47
2022-09-24T22:50:22.981Z,6.03
2022-09-24T22:55:24.826Z,6.90
2022-09-24T23:00:26.447Z,5.53
2022-09-24T23:05:29.576Z,6.30
2022-09-24T23:10:31.193Z,5.57
2022-09-24T23:15:34.566Z,6.13
2022-09-24T23:20:38.127Z,5.70
2022-09-24T23:25:39.910Z,6.57
2022-09-24T23:30:41.552Z,6.82
2022-09-24T23:35:43.130Z,7.22
2022-09-24T23:40:45.069Z,6.38
2022-09-24T23:45:47.408Z,7.05
2022-09-24T23:50:49.097Z,6.57
2022-09-24T23:55:52.119Z,6.03
